Time;durP1;ratioP1;P1;durP2;ratioP2;P2;SDS_P1;SDS_P2;PMS_P1;PMS_P2;Temp;Humidity;BMP_temperature;BMP_pressure;BME280_temperature;BME280_humidity;BME280_pressure;Samples;Min_cycle;Max_cycle;Signal;HPM_P1;HPM_P2
2023/04/14 00:00:51;;;;;;;18.07;9.33;;;14.20;76.40;;;;;;5007903;28;20219;-78
2023/04/14 00:03:20;;;;;;;17.43;8.77;;;14.20;76.30;;;;;;5007157;28;20270;-77
2023/04/14 00:05:48;;;;;;;17.20;8.57;;;14.20;76.70;;;;;;5010449;28;20255;-78
2023/04/14 00:08:17;;;;;;;12.50;7.57;;;14.20;77.10;;;;;;5011946;28;20212;-79
2023/04/14 00:10:45;;;;;;;17.53;7.57;;;14.20;76.90;;;;;;5013335;28;20199;-79
2023/04/14 00:13:13;;;;;;;13.90;7.30;;;14.10;77.20;;;;;;5013087;28;20727;-78
2023/04/14 00:15:42;;;;;;;13.00;6.47;;;14.10;77.00;;;;;;5009034;28;20200;-78
2023/04/14 00:18:11;;;;;;;14.17;7.30;;;14.10;77.30;;;;;;5008669;28;20645;-78
2023/04/14 00:20:40;;;;;;;12.40;6.90;;;14.10;77.20;;;;;;5007839;28;20227;-77
2023/04/14 00:23:08;;;;;;;18.33;7.60;;;14.00;77.10;;;;;;5012259;28;20633;-78
2023/04/14 00:25:36;;;;;;;11.93;6.70;;;14.00;76.80;;;;;;5006833;28;20618;-79
2023/04/14 00:28:05;;;;;;;15.47;7.60;;;14.00;76.90;;;;;;5013578;28;20825;-78
2023/04/14 00:30:33;;;;;;;21.37;7.93;;;14.00;76.70;;;;;;5004510;28;20251;-78
2023/04/14 00:33:01;;;;;;;11.37;6.97;;;14.00;76.70;;;;;;5009057;28;20235;-78
2023/04/14 00:35:31;;;;;;;13.50;7.33;;;14.00;76.70;;;;;;5007497;28;20209;-78
2023/04/14 00:38:00;;;;;;;14.20;7.27;;;14.00;76.90;;;;;;5012421;28;20317;-78
2023/04/14 00:40:30;;;;;;;14.57;7.53;;;14.00;77.20;;;;;;5008635;28;20200;-79
2023/04/14 00:42:58;;;;;;;15.60;8.30;;;13.90;77.50;;;;;;5008759;28;20270;-78
2023/04/14 00:45:27;;;;;;;17.20;8.50;;;13.90;77.40;;;;;;5008455;28;20213;-80
2023/04/14 00:47:55;;;;;;;14.20;7.67;;;13.90;77.50;;;;;;5008215;28;20200;-79
2023/04/14 00:50:24;;;;;;;17.80;8.67;;;13.90;77.50;;;;;;5006454;28;20654;-79
2023/04/14 00:52:56;;;;;;;16.50;8.73;;;13.90;77.40;;;;;;5011700;28;20212;-79
2023/04/14 00:55:25;;;;;;;15.67;9.13;;;13.80;77.60;;;;;;5013542;28;20200;-79
2023/04/14 00:57:54;;;;;;;14.73;8.70;;;13.80;77.30;;;;;;5015624;28;20207;-79
2023/04/14 01:00:23;;;;;;;14.63;7.50;;;13.80;77.60;;;;;;5007536;28;20251;-78
2023/04/14 01:02:51;;;;;;;16.10;8.97;;;13.80;77.60;;;;;;5009288;28;20204;-78
2023/04/14 01:05:20;;;;;;;14.60;7.70;;;13.70;78.10;;;;;;5013995;28;20574;-79
2023/04/14 01:07:50;;;;;;;14.73;8.37;;;13.70;78.30;;;;;;5012483;28;20665;-79
2023/04/14 01:10:20;;;;;;;24.30;8.00;;;13.60;78.80;;;;;;5011713;28;20201;-79
2023/04/14 01:13:06;;;;;;;13.57;7.53;;;13.60;79.50;;;;;;5012114;28;20192;-79
2023/04/14 01:15:39;;;;;;;15.83;7.40;;;13.60;79.40;;;;;;5007411;28;20203;-79
2023/04/14 01:18:13;;;;;;;13.13;7.53;;;13.50;79.10;;;;;;5006721;28;20276;-79
2023/04/14 01:20:44;;;;;;;11.87;7.20;;;13.50;79.60;;;;;;5010503;28;20195;-79
2023/04/14 01:23:21;;;;;;;14.07;6.57;;;13.50;80.30;;;;;;5013200;28;20657;-79
2023/04/14 01:26:23;;;;;;;15.30;7.43;;;13.50;81.40;;;;;;5016116;28;20224;-79
2023/04/14 01:29:36;;;;;;;13.47;7.00;;;13.50;80.30;;;;;;5014906;28;20529;-78
2023/04/14 01:32:11;;;;;;;12.90;7.00;;;13.40;80.80;;;;;;5008786;28;20241;-79
2023/04/14 01:34:46;;;;;;;14.47;7.07;;;13.40;81.10;;;;;;5010542;28;20782;-78
2023/04/14 01:37:16;;;;;;;13.17;7.47;;;13.40;81.60;;;;;;5013720;28;20250;-78
2023/04/14 01:39:49;;;;;;;12.73;6.67;;;13.30;81.70;;;;;;5007337;28;20192;-77
2023/04/14 01:42:22;;;;;;;12.67;7.20;;;13.30;81.50;;;;;;5016524;28;20315;-77
2023/04/14 01:44:55;;;;;;;12.40;6.97;;;13.30;81.30;;;;;;5005399;28;20244;-76
2023/04/14 01:47:26;;;;;;;13.77;6.70;;;13.30;81.30;;;;;;5009317;28;20204;-77
2023/04/14 01:49:56;;;;;;;11.73;7.37;;;13.30;81.50;;;;;;5004862;28;20196;-77
2023/04/14 01:52:26;;;;;;;11.67;6.87;;;13.30;81.40;;;;;;5015138;28;20196;-78
2023/04/14 01:54:56;;;;;;;12.83;7.40;;;13.30;81.60;;;;;;5007250;28;20196;-78
2023/04/14 01:57:26;;;;;;;13.30;7.47;;;13.20;81.30;;;;;;5012946;28;20201;-79
2023/04/14 01:59:56;;;;;;;11.80;6.93;;;13.20;81.60;;;;;;5012801;28;20201;-77
2023/04/14 02:02:27;;;;;;;12.47;6.80;;;13.20;81.60;;;;;;5017776;28;20207;-79
2023/04/14 02:04:57;;;;;;;12.13;7.30;;;13.20;81.50;;;;;;5012810;28;20655;-78
2023/04/14 02:07:27;;;;;;;16.00;7.87;;;13.20;81.40;;;;;;5015171;28;20208;-78
2023/04/14 02:09:57;;;;;;;13.43;7.20;;;13.20;81.30;;;;;;5013616;28;20609;-78
2023/04/14 02:12:28;;;;;;;12.87;7.70;;;13.30;81.30;;;;;;5018091;28;20255;-78
2023/04/14 02:14:58;;;;;;;12.70;7.67;;;13.20;81.50;;;;;;5012368;28;20669;-78
2023/04/14 02:17:28;;;;;;;10.63;6.50;;;13.20;81.30;;;;;;5012014;28;20196;-78
2023/04/14 02:19:58;;;;;;;14.47;8.33;;;13.20;81.20;;;;;;5016011;28;20196;-78
2023/04/14 02:22:26;;;;;;;13.87;7.83;;;13.30;81.20;;;;;;5015388;28;20716;-78
2023/04/14 02:24:55;;;;;;;13.80;7.83;;;13.20;81.10;;;;;;5005122;28;20775;-77
2023/04/14 02:27:31;;;;;;;16.53;8.33;;;13.30;81.10;;;;;;5007391;28;20275;-79
2023/04/14 02:30:03;;;;;;;14.10;7.67;;;13.20;81.10;;;;;;5006397;28;20238;-78
2023/04/14 02:32:36;;;;;;;15.27;8.07;;;13.20;81.10;;;;;;5015355;28;20259;-78
2023/04/14 02:35:10;;;;;;;13.73;8.00;;;13.20;81.30;;;;;;5012210;28;20197;-78
2023/04/14 02:37:42;;;;;;;15.37;8.30;;;13.20;81.30;;;;;;5007722;28;20199;-78
2023/04/14 02:40:14;;;;;;;13.37;7.53;;;13.20;81.30;;;;;;5009851;28;20201;-78
2023/04/14 02:42:48;;;;;;;13.77;7.90;;;13.20;81.40;;;;;;5004631;28;20196;-79
2023/04/14 02:45:22;;;;;;;19.87;8.00;;;13.20;81.30;;;;;;5014644;28;20205;-79
2023/04/14 02:47:57;;;;;;;16.53;8.03;;;13.20;81.20;;;;;;5012130;28;20242;-77
2023/04/14 02:50:28;;;;;;;14.77;8.70;;;13.20;81.10;;;;;;5016204;28;20286;-78
2023/04/14 02:52:59;;;;;;;15.73;8.33;;;13.20;81.10;;;;;;5010690;28;20196;-78
2023/04/14 02:55:30;;;;;;;15.53;7.90;;;13.20;81.20;;;;;;5009556;28;20416;-79
2023/04/14 02:58:00;;;;;;;18.20;9.00;;;13.20;81.30;;;;;;5002949;28;20192;-78
2023/04/14 03:00:29;;;;;;;13.23;8.13;;;13.20;81.30;;;;;;5000588;28;20607;-77
2023/04/14 03:03:00;;;;;;;12.60;8.00;;;13.10;81.30;;;;;;5002493;28;20196;-77
2023/04/14 03:05:30;;;;;;;17.00;9.13;;;13.10;81.90;;;;;;5002150;28;20296;-78
2023/04/14 03:08:00;;;;;;;17.67;9.37;;;13.10;82.20;;;;;;5007397;28;20192;-77
2023/04/14 03:10:28;;;;;;;19.10;9.27;;;13.00;82.50;;;;;;5009599;28;20258;-78
2023/04/14 03:13:00;;;;;;;18.83;8.73;;;13.00;82.70;;;;;;5000937;28;20224;-78
2023/04/14 03:15:30;;;;;;;18.83;8.97;;;13.00;82.70;;;;;;5001979;28;20196;-77
2023/04/14 03:18:01;;;;;;;18.43;8.13;;;13.00;83.10;;;;;;5003575;28;20274;-78
2023/04/14 03:20:30;;;;;;;15.37;8.20;;;12.90;83.20;;;;;;4999749;28;20196;-77
2023/04/14 03:23:03;;;;;;;13.07;8.27;;;12.90;83.40;;;;;;5001016;28;20197;-77
2023/04/14 03:25:36;;;;;;;14.83;7.83;;;12.90;83.80;;;;;;5004435;28;20682;-78
2023/04/14 03:28:10;;;;;;;12.60;7.27;;;13.00;83.70;;;;;;5000068;28;20239;-77
2023/04/14 03:30:43;;;;;;;16.90;7.90;;;12.90;84.10;;;;;;5003806;28;20202;-79
2023/04/14 03:33:18;;;;;;;16.10;7.87;;;12.90;84.70;;;;;;5004092;28;20716;-78
2023/04/14 03:35:48;;;;;;;15.13;7.67;;;12.90;84.40;;;;;;5003786;28;20195;-78
2023/04/14 03:38:18;;;;;;;12.17;7.07;;;12.90;84.60;;;;;;5010212;28;20196;-78
2023/04/14 03:40:49;;;;;;;14.70;7.50;;;12.90;84.70;;;;;;5008105;28;20204;-80
2023/04/14 03:43:21;;;;;;;12.93;7.53;;;12.90;85.30;;;;;;5004528;28;20254;-81
2023/04/14 03:45:50;;;;;;;17.90;7.73;;;12.90;84.90;;;;;;5007998;28;20208;-79
2023/04/14 03:48:25;;;;;;;14.80;7.33;;;12.90;85.40;;;;;;5005230;28;20291;-79
2023/04/14 03:50:55;;;;;;;11.60;6.83;;;12.90;85.20;;;;;;5008193;28;20201;-79
2023/04/14 03:53:25;;;;;;;12.97;7.53;;;12.90;85.60;;;;;;5009798;28;20196;-79
2023/04/14 03:55:58;;;;;;;15.30;7.20;;;12.90;85.80;;;;;;5006968;28;20200;-79
2023/04/14 03:58:28;;;;;;;11.60;7.17;;;12.90;85.70;;;;;;5013143;28;20196;-78
2023/04/14 04:00:57;;;;;;;12.70;7.37;;;13.00;85.60;;;;;;5007964;28;20701;-80
2023/04/14 04:03:28;;;;;;;16.97;7.30;;;13.00;85.50;;;;;;5006804;28;20204;-79
2023/04/14 04:05:57;;;;;;;16.00;7.43;;;13.00;85.80;;;;;;5012466;28;20208;-79
2023/04/14 04:08:26;;;;;;;12.40;6.60;;;13.00;85.90;;;;;;5014466;28;20619;-80
2023/04/14 04:10:56;;;;;;;14.47;6.57;;;13.10;85.50;;;;;;5012716;28;20650;-78
2023/04/14 04:13:25;;;;;;;12.83;6.73;;;13.10;85.80;;;;;;5013542;28;20601;-78
2023/04/14 04:15:54;;;;;;;15.40;6.80;;;13.10;85.80;;;;;;5015692;28;20200;-79
2023/04/14 04:18:25;;;;;;;13.07;6.70;;;13.20;85.80;;;;;;5009858;28;20290;-79
2023/04/14 04:20:56;;;;;;;13.43;7.27;;;13.20;86.20;;;;;;5009170;28;20570;-79
2023/04/14 04:23:27;;;;;;;16.30;7.47;;;13.30;86.10;;;;;;5008217;28;20804;-78
2023/04/14 04:25:56;;;;;;;11.80;7.07;;;13.30;86.10;;;;;;5005930;28;20246;-78
2023/04/14 04:28:25;;;;;;;13.20;7.03;;;13.30;85.90;;;;;;5006467;28;20197;-79
2023/04/14 04:30:54;;;;;;;14.43;7.93;;;13.30;85.70;;;;;;5009779;28;20205;-78
2023/04/14 04:33:23;;;;;;;11.70;6.60;;;13.40;85.60;;;;;;5015515;28;20258;-78
2023/04/14 04:35:52;;;;;;;11.57;6.90;;;13.40;85.60;;;;;;5017044;28;20614;-79
2023/04/14 04:38:22;;;;;;;12.27;7.37;;;13.50;85.40;;;;;;5011274;28;20200;-78
2023/04/14 04:40:50;;;;;;;13.10;6.30;;;13.50;85.20;;;;;;5012655;28;20204;-79
2023/04/14 04:43:19;;;;;;;14.07;6.63;;;13.60;85.10;;;;;;5008293;28;20228;-77
2023/04/14 04:46:10;;;;;;;15.60;6.67;;;13.60;84.90;;;;;;5011674;28;20282;-79
2023/04/14 04:48:39;;;;;;;11.37;6.27;;;13.70;84.70;;;;;;4979185;28;20193;-79
2023/04/14 04:51:08;;;;;;;14.27;6.40;;;13.80;84.70;;;;;;5019301;28;20258;-77
2023/04/14 04:53:38;;;;;;;11.37;6.50;;;13.80;84.50;;;;;;5018920;28;20638;-80
2023/04/14 04:56:07;;;;;;;10.47;6.03;;;13.90;84.40;;;;;;5014261;28;20223;-78
2023/04/14 04:58:35;;;;;;;10.27;6.30;;;14.00;84.00;;;;;;5011583;28;20200;-77
2023/04/14 05:01:08;;;;;;;9.33;6.00;;;14.00;83.50;;;;;;5014720;28;20197;-80
2023/04/14 05:03:37;;;;;;;9.33;5.17;;;14.10;83.30;;;;;;5013075;28;20228;-79
2023/04/14 05:06:06;;;;;;;9.07;5.50;;;14.10;82.90;;;;;;5011484;28;20236;-79
2023/04/14 05:08:34;;;;;;;14.30;5.67;;;14.20;82.90;;;;;;5016606;28;20240;-78
2023/04/14 05:11:06;;;;;;;8.40;5.23;;;14.20;82.70;;;;;;5004707;28;20212;-80
2023/04/14 05:13:35;;;;;;;10.73;5.27;;;14.30;82.50;;;;;;5011232;28;20201;-78
2023/04/14 05:16:04;;;;;;;7.50;4.27;;;14.30;81.70;;;;;;5014630;28;20201;-78
2023/04/14 05:18:33;;;;;;;9.60;4.70;;;14.40;81.90;;;;;;5012296;28;20231;-76
2023/04/14 05:21:03;;;;;;;9.07;4.50;;;14.40;81.00;;;;;;5014097;28;20208;-78
2023/04/14 05:23:32;;;;;;;9.33;4.87;;;14.50;81.00;;;;;;5015470;28;20219;-77
2023/04/14 05:26:01;;;;;;;10.17;4.50;;;14.60;80.80;;;;;;5012422;28;20278;-78
2023/04/14 05:28:51;;;;;;;6.77;4.33;;;14.60;80.30;;;;;;5008491;28;20204;-80
2023/04/14 05:31:21;;;;;;;8.87;5.40;;;14.70;80.10;;;;;;5005195;28;20256;-81
2023/04/14 05:33:50;;;;;;;8.33;4.47;;;14.70;80.00;;;;;;5012087;28;20314;-79
2023/04/14 05:36:18;;;;;;;7.70;4.83;;;14.80;80.00;;;;;;5009533;28;20204;-81
2023/04/14 05:38:46;;;;;;;10.13;4.70;;;14.80;79.70;;;;;;5009568;28;20231;-80
2023/04/14 05:41:15;;;;;;;6.90;3.90;;;14.90;79.80;;;;;;5008807;28;20260;-81
2023/04/14 05:43:43;;;;;;;7.93;3.80;;;14.90;79.60;;;;;;5013061;28;20323;-80
2023/04/14 05:46:13;;;;;;;7.63;4.33;;;15.00;79.50;;;;;;5008805;28;20216;-80
2023/04/14 05:48:41;;;;;;;8.03;4.83;;;15.10;79.20;;;;;;5015047;28;20219;-78
2023/04/14 05:51:10;;;;;;;11.50;4.63;;;15.10;78.80;;;;;;5015006;28;20562;-81
2023/04/14 05:53:38;;;;;;;6.97;4.00;;;15.10;78.30;;;;;;5005485;28;20200;-81
2023/04/14 05:56:10;;;;;;;9.47;4.50;;;15.20;78.40;;;;;;5015789;28;20204;-81
2023/04/14 05:58:38;;;;;;;5.77;3.77;;;15.30;78.30;;;;;;5017046;28;20199;-78
2023/04/14 06:01:06;;;;;;;9.63;4.73;;;15.40;78.20;;;;;;5012178;28;20625;-80
2023/04/14 06:03:36;;;;;;;7.50;4.33;;;15.40;78.20;;;;;;5015652;28;20200;-78
2023/04/14 06:06:07;;;;;;;10.30;4.43;;;15.50;77.70;;;;;;5011511;28;20196;-78
2023/04/14 06:08:36;;;;;;;8.20;5.03;;;15.50;77.60;;;;;;5009802;28;20649;-78
2023/04/14 06:11:05;;;;;;;6.80;4.40;;;15.60;77.60;;;;;;5011014;28;20207;-83
2023/04/14 06:13:33;;;;;;;7.93;4.27;;;15.70;77.00;;;;;;5010053;28;20201;-82
2023/04/14 06:16:03;;;;;;;6.23;4.03;;;15.70;76.90;;;;;;5017500;28;20205;-79
2023/04/14 06:18:32;;;;;;;9.87;5.10;;;15.80;77.00;;;;;;5008122;28;20250;-79
2023/04/14 06:21:02;;;;;;;6.27;4.50;;;15.90;76.40;;;;;;5012015;28;20192;-81
2023/04/14 06:23:31;;;;;;;9.10;4.53;;;15.90;76.00;;;;;;5010468;28;20220;-81
2023/04/14 06:26:00;;;;;;;8.47;4.50;;;16.00;76.00;;;;;;5011794;28;20296;-82
2023/04/14 06:28:28;;;;;;;9.73;4.03;;;16.00;76.10;;;;;;5011561;28;20241;-79
2023/04/14 06:30:57;;;;;;;8.97;3.73;;;16.10;75.70;;;;;;5013022;28;20254;-78
2023/04/14 06:33:25;;;;;;;7.47;4.03;;;16.20;75.80;;;;;;5007400;28;20236;-78
2023/04/14 06:35:53;;;;;;;7.30;3.73;;;16.20;74.80;;;;;;5014816;28;20192;-79
2023/04/14 06:38:24;;;;;;;5.90;3.47;;;16.30;74.40;;;;;;5013974;28;20197;-80
2023/04/14 06:40:53;;;;;;;7.77;3.83;;;16.40;74.70;;;;;;5012843;28;20196;-76
2023/04/14 06:43:30;;;;;;;6.47;2.80;;;16.50;74.30;;;;;;5016652;28;20200;-81
2023/04/14 06:45:58;;;;;;;8.70;4.07;;;16.60;74.40;;;;;;5015108;28;20668;-78
2023/04/14 06:48:27;;;;;;;8.73;3.97;;;16.70;73.60;;;;;;5009085;28;20220;-78
2023/04/14 06:50:56;;;;;;;7.10;3.60;;;16.90;73.70;;;;;;5015131;28;20333;-80
2023/04/14 06:53:26;;;;;;;10.37;4.30;;;17.00;73.70;;;;;;5012217;28;20200;-80
2023/04/14 06:55:59;;;;;;;5.70;3.23;;;17.10;73.40;;;;;;5008889;28;20897;-79
2023/04/14 06:58:28;;;;;;;7.03;3.33;;;17.20;73.10;;;;;;5009905;28;20196;-80
2023/04/14 07:00:57;;;;;;;6.73;3.20;;;17.30;72.60;;;;;;5008203;28;20205;-78
2023/04/14 07:03:27;;;;;;;6.17;3.90;;;17.50;72.50;;;;;;5013830;28;20274;-81
2023/04/14 07:06:02;;;;;;;6.97;4.23;;;17.60;72.20;;;;;;5013658;28;20207;-81
2023/04/14 07:08:33;;;;;;;6.83;3.83;;;17.70;72.10;;;;;;5010695;28;20208;-81
2023/04/14 07:11:04;;;;;;;7.20;3.63;;;17.80;71.90;;;;;;5011147;28;20279;-79
2023/04/14 07:13:33;;;;;;;7.70;3.20;;;17.90;71.50;;;;;;5008214;28;20203;-79
2023/04/14 07:16:02;;;;;;;5.73;3.30;;;18.00;71.40;;;;;;5001383;28;20716;-79
2023/04/14 07:18:31;;;;;;;7.97;4.00;;;18.10;70.90;;;;;;5010093;28;20193;-80
2023/04/14 07:21:02;;;;;;;6.27;3.13;;;18.20;69.90;;;;;;5011163;28;20200;-80
2023/04/14 07:23:35;;;;;;;5.90;3.40;;;18.30;70.30;;;;;;5015891;28;20192;-80
2023/04/14 07:26:04;;;;;;;7.27;3.80;;;18.40;69.70;;;;;;5019415;28;20192;-82
2023/04/14 07:28:32;;;;;;;7.30;3.37;;;18.50;70.10;;;;;;5009042;28;20228;-79
2023/04/14 07:31:08;;;;;;;5.70;3.57;;;18.60;70.20;;;;;;5009783;28;20205;-80
2023/04/14 07:33:36;;;;;;;8.07;3.10;;;18.80;70.00;;;;;;5012540;28;20323;-80
2023/04/14 07:36:06;;;;;;;5.90;3.20;;;18.90;69.80;;;;;;5009268;28;20288;-80
2023/04/14 07:38:36;;;;;;;10.13;3.47;;;19.00;68.80;;;;;;5012339;28;20201;-80
2023/04/14 07:41:05;;;;;;;11.47;3.63;;;19.00;67.20;;;;;;5011420;28;20220;-77
2023/04/14 07:43:35;;;;;;;5.67;3.43;;;19.10;67.50;;;;;;5014310;28;20227;-80
2023/04/14 07:46:04;;;;;;;5.83;3.20;;;19.10;67.50;;;;;;5009977;28;20285;-81
2023/04/14 07:48:34;;;;;;;5.47;2.97;;;19.30;67.70;;;;;;5017575;28;20252;-79
2023/04/14 07:51:03;;;;;;;5.30;2.83;;;19.30;67.20;;;;;;5012374;28;20200;-81
2023/04/14 07:53:32;;;;;;;7.97;3.07;;;19.30;66.90;;;;;;5017914;28;20200;-81
2023/04/14 07:56:02;;;;;;;6.57;2.67;;;19.50;67.00;;;;;;5016904;28;20228;-81
2023/04/14 07:58:30;;;;;;;6.90;3.10;;;19.50;66.40;;;;;;5011760;28;20592;-80
2023/04/14 08:00:59;;;;;;;4.80;2.47;;;19.50;65.70;;;;;;5010229;28;20228;-80
2023/04/14 08:03:30;;;;;;;8.50;2.97;;;19.50;65.50;;;;;;5010564;28;20254;-79
2023/04/14 08:05:59;;;;;;;4.67;2.70;;;19.70;66.30;;;;;;5015915;28;20223;-80
2023/04/14 08:08:28;;;;;;;7.43;3.33;;;19.70;66.50;;;;;;5013620;28;20212;-81
2023/04/14 08:10:57;;;;;;;5.17;2.70;;;19.80;66.40;;;;;;5015247;28;20200;-82
2023/04/14 08:13:29;;;;;;;6.90;3.03;;;19.90;66.50;;;;;;5010800;28;20196;-82
2023/04/14 08:15:57;;;;;;;4.60;2.53;;;20.00;66.40;;;;;;5010939;28;20204;-80
2023/04/14 08:18:26;;;;;;;9.47;3.50;;;20.20;66.50;;;;;;5012117;28;20299;-81
2023/04/14 08:20:55;;;;;;;6.57;2.77;;;20.20;65.80;;;;;;5004655;28;20199;-78
2023/04/14 08:23:23;;;;;;;5.05;2.60;;;20.30;64.80;;;;;;5011500;28;20250;-80
2023/04/14 08:26:30;;;;;;;6.47;2.88;;;20.40;64.90;;;;;;5009643;28;20282;-79
2023/04/14 08:29:00;;;;;;;4.40;2.58;;;20.50;65.50;;;;;;4998222;28;20224;-79
2023/04/14 08:31:29;;;;;;;4.03;2.33;;;20.50;64.60;;;;;;5007721;28;20188;-78
2023/04/14 08:33:58;;;;;;;7.60;3.10;;;20.50;64.60;;;;;;5018592;28;20615;-78
2023/04/14 08:36:27;;;;;;;4.18;2.45;;;20.60;65.00;;;;;;5013217;28;20208;-79
2023/04/14 08:38:55;;;;;;;7.25;3.22;;;20.60;65.00;;;;;;5011242;28;20200;-78
2023/04/14 08:41:24;;;;;;;5.03;2.20;;;20.60;64.50;;;;;;5010880;28;20201;-78
2023/04/14 08:43:53;;;;;;;5.00;2.72;;;20.60;63.60;;;;;;5010668;28;20203;-78
2023/04/14 08:46:25;;;;;;;4.78;2.47;;;20.60;63.60;;;;;;5011351;28;20204;-79
2023/04/14 08:48:59;;;;;;;6.22;2.70;;;20.70;64.20;;;;;;5011072;28;20244;-78
2023/04/14 08:51:32;;;;;;;4.28;2.40;;;20.70;63.60;;;;;;5010555;28;20705;-78
2023/04/14 08:54:02;;;;;;;6.70;2.83;;;20.80;63.60;;;;;;5011888;28;20204;-77
2023/04/14 08:56:34;;;;;;;5.30;2.72;;;20.90;63.40;;;;;;5009027;28;20196;-77
2023/04/14 08:59:03;;;;;;;4.10;2.42;;;20.90;63.70;;;;;;5010788;28;20813;-77
2023/04/14 09:01:33;;;;;;;4.80;2.70;;;21.00;63.60;;;;;;5009377;28;20254;-80
2023/04/14 09:04:03;;;;;;;6.50;2.90;;;21.00;63.20;;;;;;5010370;28;20200;-79
2023/04/14 09:06:36;;;;;;;5.18;2.75;;;21.10;63.10;;;;;;5010386;28;20279;-80
2023/04/14 09:09:06;;;;;;;3.70;2.13;;;21.20;62.80;;;;;;5008852;28;20220;-77
2023/04/14 09:11:36;;;;;;;5.57;2.33;;;21.30;64.20;;;;;;5012755;28;20207;-79
2023/04/14 09:14:04;;;;;;;6.85;2.83;;;21.40;63.20;;;;;;5010115;28;20200;-78
2023/04/14 09:16:37;;;;;;;6.82;3.10;;;21.50;62.70;;;;;;5016050;28;20201;-78
2023/04/14 09:19:06;;;;;;;6.60;2.45;;;21.50;61.80;;;;;;5015201;28;20243;-79
2023/04/14 09:21:36;;;;;;;6.40;2.72;;;21.50;61.90;;;;;;5014463;28;20250;-77
2023/04/14 09:24:27;;;;;;;4.97;2.60;;;21.60;61.90;;;;;;5016964;28;20196;-79
2023/04/14 09:27:00;;;;;;;4.78;2.65;;;21.60;61.90;;;;;;5015856;28;20723;-79
2023/04/14 09:29:29;;;;;;;7.28;2.95;;;21.60;61.70;;;;;;5012977;28;20592;-77
2023/04/14 09:32:01;;;;;;;5.40;2.50;;;21.70;62.10;;;;;;5013641;28;20204;-79
2023/04/14 09:34:32;;;;;;;6.75;2.50;;;21.70;61.80;;;;;;5014017;28;20698;-78
2023/04/14 09:37:03;;;;;;;5.15;2.45;;;21.80;62.10;;;;;;5014379;28;20663;-79
2023/04/14 09:39:32;;;;;;;6.47;2.53;;;21.80;61.30;;;;;;5014085;28;20196;-79
2023/04/14 09:42:01;;;;;;;5.57;2.85;;;21.80;61.60;;;;;;5009446;28;20200;-82
2023/04/14 09:44:32;;;;;;;4.80;2.58;;;21.90;61.60;;;;;;5014898;28;20208;-79
2023/04/14 09:47:05;;;;;;;5.43;2.85;;;22.00;61.70;;;;;;5011352;28;20197;-78
2023/04/14 09:49:34;;;;;;;5.18;2.30;;;22.20;61.90;;;;;;5013119;28;20747;-80
2023/04/14 09:52:05;;;;;;;4.68;2.40;;;22.20;62.20;;;;;;5009281;28;20295;-79
2023/04/14 09:54:33;;;;;;;6.93;2.72;;;22.20;61.60;;;;;;5012210;28;20192;-80
2023/04/14 09:57:02;;;;;;;5.85;2.17;;;22.30;61.80;;;;;;5013265;28;20204;-81
2023/04/14 09:59:33;;;;;;;6.18;2.30;;;22.30;60.90;;;;;;5011984;28;20203;-76
2023/04/14 10:02:05;;;;;;;8.02;2.10;;;22.30;60.40;;;;;;5009825;28;20723;-78
2023/04/14 10:04:34;;;;;;;5.55;2.30;;;22.30;60.80;;;;;;5010835;28;20627;-78
2023/04/14 10:07:05;;;;;;;3.72;1.98;;;22.30;60.60;;;;;;5014349;28;20215;-80
2023/04/14 10:09:36;;;;;;;4.55;2.70;;;22.20;60.20;;;;;;5016953;28;20200;-80
2023/04/14 10:12:09;;;;;;;6.88;2.38;;;22.20;60.80;;;;;;5016557;28;20200;-82
2023/04/14 10:14:38;;;;;;;4.72;2.63;;;22.20;60.60;;;;;;5017834;28;20188;-81
2023/04/14 10:17:08;;;;;;;5.88;2.22;;;22.10;60.30;;;;;;5014821;28;20239;-78
2023/04/14 10:19:37;;;;;;;5.00;1.92;;;22.10;60.80;;;;;;5012339;28;20189;-80
2023/04/14 10:22:06;;;;;;;5.97;2.20;;;22.00;60.80;;;;;;5018939;28;20544;-79
2023/04/14 10:24:35;;;;;;;4.00;2.30;;;22.10;61.20;;;;;;5011201;28;20197;-79
2023/04/14 10:27:04;;;;;;;4.07;2.05;;;22.10;61.50;;;;;;5011887;28;20670;-78
2023/04/14 10:29:33;;;;;;;7.05;2.47;;;22.10;61.80;;;;;;5021159;28;20262;-78
2023/04/14 10:32:05;;;;;;;4.82;2.03;;;22.20;62.10;;;;;;5011594;28;20307;-78
2023/04/14 10:34:37;;;;;;;4.78;1.85;;;22.20;61.80;;;;;;5028377;28;20188;-76
2023/04/14 10:37:13;;;;;;;3.15;1.65;;;22.30;61.80;;;;;;5032736;28;20222;-77
2023/04/14 10:39:42;;;;;;;2.75;1.73;;;22.30;61.80;;;;;;5029000;28;20196;-77
2023/04/14 10:42:11;;;;;;;4.55;1.88;;;22.30;61.50;;;;;;5029960;28;20653;-78
2023/04/14 10:44:40;;;;;;;4.22;1.63;;;22.30;61.50;;;;;;5031204;28;20203;-78
2023/04/14 10:47:09;;;;;;;2.72;1.45;;;22.30;61.30;;;;;;5033835;28;20195;-77
2023/04/14 10:49:40;;;;;;;6.63;1.70;;;22.30;61.30;;;;;;5024719;28;20697;-78
2023/04/14 10:52:32;;;;;;;3.28;1.75;;;22.40;61.90;;;;;;5032875;28;20826;-78
2023/04/14 10:55:07;;;;;;;5.78;1.55;;;22.50;61.70;;;;;;5029494;28;20210;-77
2023/04/14 10:57:43;;;;;;;3.72;1.40;;;22.60;61.20;;;;;;5031046;28;20705;-79
2023/04/14 11:00:24;;;;;;;2.70;1.60;;;22.70;61.20;;;;;;5028558;28;20203;-77
2023/04/14 11:02:57;;;;;;;3.67;1.70;;;22.80;61.30;;;;;;5023533;28;20202;-78
2023/04/14 11:05:27;;;;;;;3.17;1.73;;;22.90;61.30;;;;;;5036387;28;20223;-77
2023/04/14 11:07:57;;;;;;;2.22;1.17;;;23.00;61.10;;;;;;5034379;28;20261;-76
2023/04/14 11:10:32;;;;;;;4.20;1.20;;;23.10;60.80;;;;;;5032670;28;20299;-77
2023/04/14 11:13:05;;;;;;;4.60;1.60;;;23.20;59.80;;;;;;5027401;28;20203;-80
2023/04/14 11:15:47;;;;;;;5.78;1.58;;;23.20;58.70;;;;;;5037995;28;20551;-76
2023/04/14 11:18:17;;;;;;;2.83;1.45;;;23.30;58.10;;;;;;5030232;28;20191;-78
2023/04/14 11:20:47;;;;;;;4.78;1.55;;;23.40;58.60;;;;;;5031515;28;20184;-79
2023/04/14 11:23:16;;;;;;;3.90;1.67;;;23.40;58.90;;;;;;5025458;28;20195;-78
2023/04/14 11:25:45;;;;;;;2.97;1.65;;;23.60;58.80;;;;;;5031395;28;20192;-77
2023/04/14 11:28:13;;;;;;;4.13;1.50;;;23.60;58.70;;;;;;5028219;28;20219;-77
2023/04/14 11:30:43;;;;;;;3.47;1.70;;;23.70;59.00;;;;;;5033665;28;20265;-75
2023/04/14 11:33:15;;;;;;;2.55;1.40;;;23.70;58.60;;;;;;5035819;28;20234;-79
2023/04/14 11:35:43;;;;;;;2.78;1.60;;;23.70;58.40;;;;;;5034780;28;20191;-78
2023/04/14 11:38:15;;;;;;;4.22;1.95;;;23.70;58.40;;;;;;5038439;28;20246;-77
2023/04/14 11:40:49;;;;;;;2.20;1.30;;;23.60;58.40;;;;;;5029017;28;20188;-78
2023/04/14 11:43:17;;;;;;;2.50;1.27;;;23.70;58.40;;;;;;5034275;28;20204;-79
2023/04/14 11:45:50;;;;;;;1.88;1.20;;;23.70;58.00;;;;;;5036699;28;20250;-78
2023/04/14 11:48:20;;;;;;;2.67;1.58;;;23.70;57.90;;;;;;5037426;28;20621;-78
2023/04/14 11:50:49;;;;;;;3.63;2.05;;;23.70;58.00;;;;;;5021621;28;20223;-77
2023/04/14 11:53:20;;;;;;;4.47;2.00;;;23.70;58.10;;;;;;5026096;28;20203;-77
2023/04/14 11:55:49;;;;;;;3.67;1.90;;;23.80;58.50;;;;;;5028510;28;20221;-77
2023/04/14 11:58:22;;;;;;;2.92;1.63;;;23.80;58.60;;;;;;5035420;28;20192;-76
2023/04/14 12:00:51;;;;;;;3.15;1.50;;;23.90;59.00;;;;;;5024679;28;20195;-78
2023/04/14 12:03:27;;;;;;;4.45;2.08;;;24.00;59.10;;;;;;5033205;28;20192;-77
2023/04/14 12:05:58;;;;;;;4.30;2.00;;;24.10;58.80;;;;;;5031532;28;20196;-78
2023/04/14 12:08:32;;;;;;;2.88;1.70;;;24.10;59.10;;;;;;5033845;28;20201;-78
2023/04/14 12:11:13;;;;;;;3.25;1.70;;;24.30;58.90;;;;;;5025939;28;20231;-79
2023/04/14 12:13:41;;;;;;;3.58;1.70;;;24.40;58.80;;;;;;5022036;28;20192;-78
2023/04/14 12:16:11;;;;;;;2.50;1.65;;;24.40;58.70;;;;;;5023586;28;20810;-78
2023/04/14 12:18:39;;;;;;;4.18;2.10;;;24.40;58.90;;;;;;5032855;28;20203;-77
2023/04/14 12:21:08;;;;;;;2.80;1.70;;;24.50;58.80;;;;;;5030623;28;20223;-77
2023/04/14 12:23:40;;;;;;;3.05;1.85;;;24.40;58.60;;;;;;5025123;28;20603;-79
2023/04/14 12:26:12;;;;;;;2.90;1.58;;;24.40;58.90;;;;;;5026207;28;20670;-77
2023/04/14 12:28:41;;;;;;;3.90;1.80;;;24.40;59.60;;;;;;5025907;28;20196;-79
2023/04/14 12:31:10;;;;;;;2.55;1.73;;;24.50;59.20;;;;;;5024831;28;20234;-79
2023/04/14 12:33:38;;;;;;;4.72;1.50;;;24.50;59.50;;;;;;5019967;28;20251;-78
2023/04/14 12:36:08;;;;;;;4.13;1.83;;;24.60;59.50;;;;;;5026190;28;20849;-79
2023/04/14 12:38:37;;;;;;;3.17;1.80;;;24.70;59.60;;;;;;5027068;28;20235;-78
2023/04/14 12:41:07;;;;;;;5.50;2.33;;;24.70;59.60;;;;;;5027864;28;20220;-78
2023/04/14 12:43:37;;;;;;;3.50;1.65;;;24.80;59.70;;;;;;5032453;28;20254;-78
2023/04/14 12:46:06;;;;;;;2.10;1.42;;;24.90;59.50;;;;;;5032589;28;20640;-78
2023/04/14 12:48:43;;;;;;;7.00;1.60;;;25.00;59.80;;;;;;5030763;28;20730;-80
2023/04/14 12:51:13;;;;;;;4.30;2.55;;;24.90;59.40;;;;;;5016038;28;20207;-78
2023/04/14 12:53:42;;;;;;;6.85;2.20;;;25.00;59.80;;;;;;5034101;28;20203;-78
2023/04/14 12:56:15;;;;;;;5.90;2.20;;;24.90;59.40;;;;;;5035706;28;20257;-77
2023/04/14 12:58:45;;;;;;;4.70;1.92;;;24.90;59.40;;;;;;5041268;28;20283;-77
2023/04/14 13:01:16;;;;;;;4.53;2.13;;;24.90;59.20;;;;;;5033302;28;20195;-77